createdAt,value
2022-08-26T00:02:24.212Z,16.70
2022-08-26T00:04:54.709Z,21.58
2022-08-26T00:07:25.100Z,19.52
2022-08-26T00:09:58.921Z,17.30
2022-08-26T00:12:36.005Z,20.15
2022-08-26T00:15:11.513Z,17.02
2022-08-26T00:17:42.285Z,22.58
2022-08-26T00:20:22.473Z,18.02
2022-08-26T00:22:53.038Z,17.65
2022-08-26T00:25:26.425Z,20.08
2022-08-26T00:27:56.850Z,17.80
2022-08-26T00:30:30.327Z,18.77
2022-08-26T00:33:01.960Z,18.77
2022-08-26T00:35:33.542Z,16.73
2022-08-26T00:38:05.258Z,19.67
2022-08-26T00:40:47.378Z,22.40
2022-08-26T00:43:18.600Z,24.42
2022-08-26T00:45:56.637Z,20.77
2022-08-26T00:48:31.908Z,18.42
2022-08-26T00:51:09.763Z,19.08
2022-08-26T00:53:46.796Z,20.30
2022-08-26T00:56:27.288Z,19.05
2022-08-26T00:59:00.107Z,16.10
2022-08-26T01:01:31.391Z,20.20
2022-08-26T01:04:02.808Z,20.35
2022-08-26T01:06:33.381Z,24.45
2022-08-26T01:09:03.734Z,22.38
2022-08-26T01:11:37.263Z,17.38
2022-08-26T01:14:09.434Z,18.23
2022-08-26T01:16:40.382Z,23.38
2022-08-26T01:19:21.986Z,22.15
2022-08-26T01:22:01.329Z,20.75
2022-08-26T01:24:34.816Z,22.48
2022-08-26T01:27:13.469Z,18.75
2022-08-26T01:29:47.426Z,17.48
2022-08-26T01:32:25.988Z,18.88
2022-08-26T01:34:57.378Z,22.95
2022-08-26T01:37:36.910Z,23.42
2022-08-26T01:40:17.305Z,19.20
2022-08-26T01:42:49.337Z,20.15
2022-08-26T01:45:25.879Z,25.67
2022-08-26T01:48:00.319Z,27.30
2022-08-26T01:50:34.456Z,19.67
2022-08-26T01:53:09.757Z,20.77
2022-08-26T01:55:49.489Z,18.58
2022-08-26T01:58:27.041Z,19.55
2022-08-26T02:00:57.961Z,22.98
2022-08-26T02:03:29.960Z,22.85
2022-08-26T02:06:04.720Z,23.23
2022-08-26T02:08:42.478Z,20.08
2022-08-26T02:11:18.285Z,24.73
2022-08-26T02:13:52.525Z,21.83
2022-08-26T02:16:29.211Z,22.65
2022-08-26T02:21:30.024Z,23.23
2022-08-26T02:24:11.678Z,22.75
2022-08-26T02:26:46.377Z,20.95
2022-08-26T02:31:53.305Z,21.73
2022-08-26T02:34:31.430Z,25.10
2022-08-26T02:37:03.684Z,19.73
2022-08-26T02:39:35.473Z,19.67
2022-08-26T02:42:09.188Z,20.17
2022-08-26T02:44:40.289Z,21.50
2022-08-26T02:47:11.083Z,22.73
2022-08-26T02:49:44.346Z,18.45
2022-08-26T02:52:17.790Z,22.88
2022-08-26T02:54:49.594Z,23.50
2022-08-26T02:57:23.420Z,17.75
2022-08-26T02:59:54.511Z,21.48
2022-08-26T03:02:24.834Z,18.88
2022-08-26T03:04:57.323Z,24.20
2022-08-26T03:07:31.089Z,21.35
2022-08-26T03:10:01.777Z,22.40
2022-08-26T03:12:41.796Z,20.65
2022-08-26T03:15:17.573Z,20.13
2022-08-26T03:17:50.502Z,24.45
2022-08-26T03:20:21.615Z,20.13
2022-08-26T03:22:53.518Z,20.33
2022-08-26T03:25:27.161Z,20.38
2022-08-26T03:28:00.130Z,18.38
2022-08-26T03:30:44.890Z,20.75
2022-08-26T03:33:17.483Z,20.98
2022-08-26T03:35:50.543Z,23.25
2022-08-26T03:38:22.186Z,25.30
2022-08-26T03:40:52.648Z,24.83
2022-08-26T03:43:26.963Z,27.48
2022-08-26T03:45:57.323Z,21.08
2022-08-26T03:48:27.573Z,24.27
2022-08-26T03:50:57.756Z,17.75
2022-08-26T03:53:28.168Z,25.00
2022-08-26T03:55:58.567Z,25.25
2022-08-26T03:58:32.308Z,21.00
2022-08-26T04:01:02.830Z,24.25
2022-08-26T04:03:46.348Z,17.85
2022-08-26T04:06:16.661Z,21.88
2022-08-26T04:08:47.754Z,23.92
2022-08-26T04:11:21.751Z,21.52
2022-08-26T04:13:54.756Z,24.98
2022-08-26T04:16:25.107Z,26.75
2022-08-26T04:18:58.310Z,20.50
2022-08-26T04:21:30.193Z,18.73
2022-08-26T04:24:03.619Z,21.20
2022-08-26T04:26:39.591Z,20.52
2022-08-26T04:29:20.874Z,16.98
2022-08-26T04:31:55.259Z,25.92
2022-08-26T04:36:59.375Z,22.55
2022-08-26T04:39:30.337Z,28.45
2022-08-26T04:42:02.735Z,23.77
2022-08-26T04:44:39.397Z,22.85
2022-08-26T04:47:10.025Z,26.92
2022-08-26T04:49:41.547Z,20.05
2022-08-26T04:52:12.060Z,24.02
2022-08-26T04:54:42.860Z,29.80
2022-08-26T04:57:14.125Z,22.00
2022-08-26T04:59:47.081Z,26.60
2022-08-26T05:02:19.950Z,25.05
2022-08-26T05:04:51.902Z,23.33
2022-08-26T05:07:22.363Z,25.55
2022-08-26T05:09:53.035Z,21.73
2022-08-26T05:12:24.885Z,26.08
2022-08-26T05:14:58.012Z,25.10
2022-08-26T05:17:28.114Z,33.70
2022-08-26T05:19:58.530Z,23.10
2022-08-26T05:22:28.746Z,26.80
2022-08-26T05:24:59.216Z,25.27
2022-08-26T05:27:29.521Z,25.58
2022-08-26T05:30:03.524Z,24.80
2022-08-26T05:32:34.413Z,29.30
2022-08-26T05:35:04.633Z,27.70
2022-08-26T05:37:40.898Z,22.80
2022-08-26T05:40:12.885Z,24.60
2022-08-26T05:42:43.128Z,32.22
2022-08-26T05:45:16.787Z,30.17
2022-08-26T05:47:47.500Z,30.10
2022-08-26T05:50:21.988Z,27.25
2022-08-26T05:52:53.727Z,25.73
2022-08-26T05:55:24.423Z,29.38
2022-08-26T05:57:54.622Z,27.40
2022-08-26T06:00:28.426Z,30.77
2022-08-26T06:02:59.138Z,26.23
2022-08-26T06:05:29.919Z,30.52
2022-08-26T06:08:12.712Z,21.75
2022-08-26T06:10:48.673Z,21.58
2022-08-26T06:13:26.973Z,22.77
2022-08-26T06:16:06.231Z,33.22
2022-08-26T06:18:41.363Z,25.70
2022-08-26T06:21:19.738Z,28.38
2022-08-26T06:24:05.218Z,29.17
2022-08-26T06:26:36.575Z,27.13
2022-08-26T06:29:08.772Z,23.83
2022-08-26T06:31:41.766Z,34.25
2022-08-26T06:34:12.507Z,31.90
2022-08-26T06:36:47.401Z,34.53
2022-08-26T06:39:20.773Z,26.55
2022-08-26T06:41:52.205Z,29.87
2022-08-26T06:44:23.437Z,26.13
2022-08-26T06:46:56.436Z,26.50
2022-08-26T06:49:27.865Z,25.27
2022-08-26T06:51:59.299Z,28.50
2022-08-26T06:54:31.990Z,23.95
2022-08-26T06:57:02.577Z,31.48
2022-08-26T06:59:34.003Z,20.85
2022-08-26T07:02:08.332Z,26.27
2022-08-26T07:04:38.548Z,25.83
2022-08-26T07:07:09.668Z,23.83
2022-08-26T07:09:39.971Z,22.67
2022-08-26T07:12:10.519Z,26.50
2022-08-26T07:14:41.309Z,25.42
2022-08-26T07:17:20.450Z,30.08
2022-08-26T07:19:51.744Z,29.45
2022-08-26T07:22:23.253Z,22.83
2022-08-26T07:24:55.061Z,19.75
2022-08-26T07:27:26.130Z,21.45
2022-08-26T07:30:00.181Z,19.77
2022-08-26T07:32:35.104Z,19.88
2022-08-26T07:35:05.802Z,26.45
2022-08-26T07:37:39.358Z,23.10
2022-08-26T07:40:12.073Z,29.02
2022-08-26T07:42:42.600Z,22.13
2022-08-26T07:45:13.365Z,22.90
2022-08-26T07:47:47.846Z,25.00
2022-08-26T07:50:18.152Z,21.17
2022-08-26T07:52:48.462Z,22.88
2022-08-26T07:55:19.085Z,21.00
2022-08-26T07:57:49.901Z,25.55
2022-08-26T08:00:20.678Z,23.25
2022-08-26T08:02:54.253Z,26.00
2022-08-26T08:05:27.242Z,24.55
2022-08-26T08:08:27.223Z,24.00
2022-08-26T08:10:55.369Z,22.63
2022-08-26T08:13:27.035Z,27.90
2022-08-26T08:15:57.648Z,27.35
2022-08-26T08:18:31.327Z,22.63
2022-08-26T08:21:20.953Z,27.48
2022-08-26T08:23:52.784Z,27.55
2022-08-26T08:26:23.698Z,25.77
2022-08-26T08:28:56.942Z,18.20
2022-08-26T08:31:56.280Z,25.33
2022-08-26T08:34:23.247Z,20.83
2022-08-26T08:36:54.349Z,22.17
2022-08-26T08:39:25.139Z,19.35
2022-08-26T08:42:26.138Z,24.85
2022-08-26T08:45:01.721Z,23.02
2022-08-26T08:47:37.927Z,20.88
2022-08-26T08:50:32.009Z,21.73
2022-08-26T08:53:15.482Z,26.63
2022-08-26T08:56:02.138Z,23.23
2022-08-26T08:58:51.315Z,21.58
2022-08-26T09:01:39.610Z,24.25
2022-08-26T09:04:51.551Z,18.83
2022-08-26T09:07:31.259Z,21.95
2022-08-26T09:10:08.458Z,23.80
2022-08-26T09:12:39.016Z,27.20
2022-08-26T09:15:20.544Z,20.27
2022-08-26T09:18:00.094Z,23.17
2022-08-26T09:20:45.682Z,26.23
2022-08-26T09:23:19.609Z,23.00
2022-08-26T09:28:50.575Z,30.73
2022-08-26T09:31:27.639Z,26.10
2022-08-26T09:34:17.391Z,26.05
2022-08-26T09:36:51.519Z,19.77
2022-08-26T09:39:37.928Z,23.08
2022-08-26T09:42:14.156Z,19.92
2022-08-26T09:45:00.527Z,30.48
2022-08-26T09:47:34.625Z,18.33
2022-08-26T09:50:12.383Z,19.52
2022-08-26T09:52:43.128Z,22.45
2022-08-26T09:55:24.129Z,22.20
2022-08-26T09:57:57.538Z,27.25
2022-08-26T10:00:35.435Z,21.83
2022-08-26T10:03:15.561Z,27.05
2022-08-26T10:05:57.584Z,27.50
2022-08-26T10:08:33.984Z,29.25
2022-08-26T10:11:17.927Z,29.27
2022-08-26T10:13:55.662Z,26.23
2022-08-26T10:16:30.287Z,29.85
2022-08-26T10:19:09.261Z,32.40
2022-08-26T10:21:45.684Z,22.42
2022-08-26T10:24:31.323Z,25.83
2022-08-26T10:27:13.599Z,30.33
2022-08-26T10:29:49.500Z,24.60
2022-08-26T10:32:30.959Z,30.25
2022-08-26T10:35:01.372Z,19.27
2022-08-26T10:37:48.858Z,26.23
2022-08-26T10:40:27.601Z,24.42
2022-08-26T10:43:11.171Z,25.42
2022-08-26T10:45:47.318Z,28.98
2022-08-26T10:48:23.509Z,23.55
2022-08-26T10:50:53.832Z,23.85
2022-08-26T10:53:33.908Z,29.05
2022-08-26T10:56:18.842Z,24.17
2022-08-26T10:59:10.416Z,26.20
2022-08-26T11:01:52.546Z,17.63
2022-08-26T11:04:42.371Z,21.17
2022-08-26T11:07:41.028Z,16.65
2022-08-26T11:10:49.395Z,32.72
2022-08-26T11:13:22.989Z,22.27
2022-08-26T11:16:11.200Z,27.23
2022-08-26T11:18:51.350Z,29.10
2022-08-26T11:21:53.784Z,24.98
2022-08-26T11:25:03.081Z,25.80
2022-08-26T11:28:09.727Z,29.50
2022-08-26T11:30:57.826Z,17.35
2022-08-26T11:34:00.253Z,20.05
2022-08-26T11:37:02.469Z,18.35
2022-08-26T11:39:54.044Z,22.10
2022-08-26T11:42:38.187Z,23.95
2022-08-26T11:45:24.334Z,26.10
2022-08-26T11:47:57.729Z,24.75
2022-08-26T11:50:31.323Z,30.43
2022-08-26T11:53:06.252Z,19.35
2022-08-26T11:55:39.400Z,26.58
2022-08-26T11:58:09.748Z,20.63
2022-08-26T12:00:55.328Z,25.75
2022-08-26T12:03:38.906Z,32.25
2022-08-26T12:06:17.264Z,24.45
2022-08-26T12:08:48.553Z,21.83
2022-08-26T12:11:27.156Z,16.90
2022-08-26T12:14:00.526Z,21.23
2022-08-26T12:16:33.594Z,22.83
2022-08-26T12:19:27.436Z,20.13
2022-08-26T12:22:01.790Z,17.27
2022-08-26T12:27:19.952Z,25.65
2022-08-26T12:30:06.802Z,27.65
2022-08-26T12:32:57.155Z,19.38
2022-08-26T12:35:31.299Z,18.33
2022-08-26T12:38:03.006Z,19.67
2022-08-26T12:40:40.113Z,22.75
2022-08-26T12:43:15.804Z,12.60
2022-08-26T12:45:58.225Z,9.18
2022-08-26T12:48:32.548Z,9.30
2022-08-26T12:51:09.583Z,10.13
2022-08-26T12:53:46.465Z,10.77
2022-08-26T12:56:30.472Z,6.78
2022-08-26T12:59:12.255Z,13.00
2022-08-26T13:01:46.956Z,12.70
2022-08-26T13:04:38.463Z,10.77
2022-08-26T13:07:25.710Z,12.35
2022-08-26T13:09:58.603Z,11.55
2022-08-26T13:12:33.296Z,12.15
2022-08-26T13:15:05.365Z,16.45
2022-08-26T13:17:36.223Z,9.38
2022-08-26T13:20:07.725Z,14.40
2022-08-26T13:25:12.020Z,16.58
2022-08-26T13:27:42.352Z,13.38
2022-08-26T13:30:15.012Z,11.90
2022-08-26T13:32:45.597Z,15.57
2022-08-26T13:35:15.879Z,16.35
2022-08-26T13:37:48.798Z,15.13
2022-08-26T13:40:19.462Z,11.07
2022-08-26T13:42:50.183Z,16.67
2022-08-26T13:45:20.892Z,16.85
2022-08-26T13:47:51.425Z,11.98
2022-08-26T13:50:21.761Z,9.93
2022-08-26T13:52:54.659Z,11.23
2022-08-26T13:55:25.156Z,16.35
2022-08-26T13:57:55.388Z,11.95
2022-08-26T14:00:25.937Z,12.30
2022-08-26T14:02:56.369Z,13.23
2022-08-26T14:05:26.859Z,15.35
2022-08-26T14:08:00.314Z,13.93
2022-08-26T14:10:31.031Z,12.30
2022-08-26T14:13:01.399Z,14.48
2022-08-26T14:15:32.337Z,14.10
2022-08-26T14:18:05.462Z,13.27
2022-08-26T14:20:39.702Z,14.13
2022-08-26T14:23:14.160Z,14.07
2022-08-26T14:25:45.278Z,13.60
2022-08-26T14:28:15.720Z,11.70
2022-08-26T14:30:49.345Z,14.32
2022-08-26T14:33:23.188Z,12.03
2022-08-26T14:35:53.695Z,10.65
2022-08-26T14:38:26.697Z,10.10
2022-08-26T14:40:57.073Z,10.52
2022-08-26T14:43:27.357Z,8.27
2022-08-26T14:45:57.677Z,10.05
2022-08-26T14:48:28.092Z,9.60
2022-08-26T14:50:58.457Z,13.48
2022-08-26T14:53:43.794Z,11.30
2022-08-26T14:56:16.686Z,10.65
2022-08-26T14:58:47.239Z,12.93
2022-08-26T15:01:17.664Z,14.10
2022-08-26T15:03:48.784Z,11.35
2022-08-26T15:06:19.917Z,14.85
2022-08-26T15:08:52.820Z,10.90
2022-08-26T15:11:23.121Z,10.02
2022-08-26T15:13:53.577Z,11.52
2022-08-26T15:16:24.134Z,11.05
2022-08-26T15:18:54.664Z,13.15
2022-08-26T15:21:25.270Z,12.18
2022-08-26T15:23:58.258Z,13.50
2022-08-26T15:26:29.993Z,12.10
2022-08-26T15:29:04.336Z,12.05
2022-08-26T15:31:36.808Z,9.95
2022-08-26T15:34:16.175Z,9.80
2022-08-26T15:36:47.580Z,9.35
2022-08-26T15:39:20.917Z,13.07
2022-08-26T15:41:51.752Z,11.07
2022-08-26T15:44:22.092Z,14.40
2022-08-26T15:46:58.289Z,19.40
2022-08-26T15:49:29.124Z,12.32
2022-08-26T15:51:59.761Z,17.40
2022-08-26T15:54:32.664Z,16.38
2022-08-26T15:57:07.173Z,11.07
2022-08-26T15:59:39.876Z,13.02
2022-08-26T16:02:11.266Z,18.08
2022-08-26T16:04:42.060Z,14.63
2022-08-26T16:07:14.136Z,15.02
2022-08-26T16:09:49.207Z,16.70
2022-08-26T16:12:24.448Z,16.88
2022-08-26T16:14:54.784Z,11.98
2022-08-26T16:17:25.836Z,13.55
2022-08-26T16:19:56.439Z,13.60
2022-08-26T16:22:28.505Z,10.05
2022-08-26T16:25:02.550Z,13.52
2022-08-26T16:27:32.769Z,14.48
2022-08-26T16:30:03.143Z,12.35
2022-08-26T16:32:33.425Z,14.55
2022-08-26T16:35:03.698Z,10.07
2022-08-26T16:37:38.945Z,12.35
2022-08-26T16:40:14.263Z,12.40
2022-08-26T16:42:44.553Z,16.08
2022-08-26T16:45:15.200Z,13.98
2022-08-26T16:47:45.763Z,15.25
2022-08-26T16:50:16.334Z,10.43
2022-08-26T16:52:46.620Z,12.20
2022-08-26T16:55:25.769Z,15.70
2022-08-26T16:57:56.197Z,12.27
2022-08-26T17:00:30.527Z,13.18
2022-08-26T17:03:03.027Z,11.10
2022-08-26T17:05:33.768Z,11.07
2022-08-26T17:08:04.067Z,11.15
2022-08-26T17:10:37.909Z,10.23
2022-08-26T17:13:08.735Z,17.77
2022-08-26T17:15:39.061Z,12.52
2022-08-26T17:18:09.576Z,13.30
2022-08-26T17:20:39.735Z,14.35
2022-08-26T17:23:10.371Z,17.20
2022-08-26T17:25:43.583Z,13.48
2022-08-26T17:28:14.443Z,13.02
2022-08-26T17:30:45.026Z,17.33
2022-08-26T17:33:15.378Z,15.93
2022-08-26T17:35:53.144Z,18.15
2022-08-26T17:38:24.005Z,11.40
2022-08-26T17:40:57.503Z,13.10
2022-08-26T17:43:29.543Z,14.70
2022-08-26T17:46:07.020Z,18.13
2022-08-26T17:48:37.742Z,16.00
2022-08-26T17:51:12.317Z,17.65
2022-08-26T17:53:42.633Z,15.90
2022-08-26T17:56:18.618Z,14.02
2022-08-26T17:58:52.015Z,12.85
2022-08-26T18:01:22.782Z,13.32
2022-08-26T18:03:56.687Z,16.17
2022-08-26T18:06:30.480Z,19.05
2022-08-26T18:09:01.380Z,13.52
2022-08-26T18:11:34.831Z,11.50
2022-08-26T18:14:05.192Z,13.52
2022-08-26T18:16:38.484Z,12.88
2022-08-26T18:19:09.520Z,14.80
2022-08-26T18:21:39.920Z,19.55
2022-08-26T18:24:14.093Z,16.20
2022-08-26T18:31:51.338Z,14.38
2022-08-26T18:34:21.644Z,17.52
2022-08-26T18:36:55.280Z,12.60
2022-08-26T18:39:25.620Z,17.58
2022-08-26T18:41:59.030Z,15.05
2022-08-26T18:44:29.453Z,12.48
2022-08-26T18:46:59.696Z,15.38
2022-08-26T18:49:30.047Z,12.57
2022-08-26T18:52:00.380Z,11.57
2022-08-26T18:54:30.586Z,14.70
2022-08-26T18:57:03.541Z,14.63
2022-08-26T18:59:33.669Z,14.65
2022-08-26T19:02:04.152Z,14.48
2022-08-26T19:04:34.637Z,14.38
2022-08-26T19:07:04.958Z,13.57
2022-08-26T19:09:35.994Z,16.15
2022-08-26T19:12:09.763Z,11.13
2022-08-26T19:14:40.123Z,14.43
2022-08-26T19:17:10.400Z,13.13
2022-08-26T19:19:40.885Z,12.70
2022-08-26T19:22:11.362Z,12.43
2022-08-26T19:24:41.646Z,15.57
2022-08-26T19:27:15.130Z,13.10
2022-08-26T19:29:45.403Z,12.82
2022-08-26T19:32:17.124Z,13.15
2022-08-26T19:34:47.495Z,14.77
2022-08-26T19:37:17.875Z,15.75
2022-08-26T19:39:48.075Z,12.30
2022-08-26T19:42:20.937Z,13.00
2022-08-26T19:45:03.607Z,12.30
2022-08-26T19:47:33.838Z,17.92
2022-08-26T19:50:04.032Z,11.60
2022-08-26T19:52:34.359Z,12.48
2022-08-26T19:55:06.899Z,16.05
2022-08-26T19:57:41.352Z,11.27
2022-08-26T20:02:46.505Z,14.35
2022-08-26T20:05:20.105Z,14.07
2022-08-26T20:07:50.919Z,12.43
2022-08-26T20:10:25.564Z,13.45
2022-08-26T20:12:58.641Z,13.77
2022-08-26T20:15:29.194Z,12.90
2022-08-26T20:17:59.719Z,12.90
2022-08-26T20:20:42.381Z,17.17
2022-08-26T20:23:12.987Z,13.20
2022-08-26T20:25:43.876Z,14.10
2022-08-26T20:28:16.808Z,13.60
2022-08-26T20:30:47.244Z,14.70
2022-08-26T20:33:17.575Z,14.93
2022-08-26T20:35:47.883Z,12.13
2022-08-26T20:38:21.454Z,14.82
2022-08-26T20:40:52.178Z,18.13
2022-08-26T20:43:29.595Z,17.77
2022-08-26T20:46:00.054Z,15.15
2022-08-26T20:48:30.683Z,14.25
2022-08-26T20:51:02.613Z,16.13
2022-08-26T20:53:33.427Z,14.98
2022-08-26T20:56:05.107Z,19.10
2022-08-26T20:58:38.587Z,16.17
2022-08-26T21:01:09.829Z,20.30
2022-08-26T21:03:41.080Z,14.73
2022-08-26T21:06:11.538Z,18.88
2022-08-26T21:08:43.278Z,15.60
2022-08-26T21:11:14.942Z,19.13
2022-08-26T21:14:04.381Z,16.65
2022-08-26T21:16:39.241Z,17.20
2022-08-26T21:19:14.002Z,17.35
2022-08-26T21:21:44.903Z,19.48
2022-08-26T21:24:15.785Z,18.45
2022-08-26T21:26:46.644Z,16.23
2022-08-26T21:29:22.132Z,16.67
2022-08-26T21:31:52.680Z,16.45
2022-08-26T21:34:23.883Z,19.40
2022-08-26T21:36:54.362Z,16.98
2022-08-26T21:39:24.776Z,16.23
2022-08-26T21:41:55.115Z,16.08
2022-08-26T21:44:28.316Z,16.73
2022-08-26T21:46:58.651Z,15.88
2022-08-26T21:49:28.842Z,18.50
2022-08-26T21:51:59.279Z,18.05
2022-08-26T21:54:29.480Z,17.52
2022-08-26T21:57:00.243Z,17.38
2022-08-26T21:59:33.369Z,18.02
2022-08-26T22:02:05.766Z,17.98
2022-08-26T22:04:36.303Z,19.85
2022-08-26T22:07:06.771Z,17.95
2022-08-26T22:09:40.336Z,19.30
2022-08-26T22:12:18.246Z,18.77
2022-08-26T22:14:51.161Z,24.13
2022-08-26T22:17:22.647Z,20.05
2022-08-26T22:19:53.340Z,16.20
2022-08-26T22:22:23.667Z,19.30
2022-08-26T22:24:54.034Z,16.55
2022-08-26T22:27:24.323Z,21.58
2022-08-26T22:29:57.375Z,16.52
2022-08-26T22:32:27.671Z,19.90
2022-08-26T22:34:57.966Z,20.52
2022-08-26T22:37:28.452Z,18.35
2022-08-26T22:39:58.751Z,19.10
2022-08-26T22:42:29.301Z,20.55
2022-08-26T22:45:02.278Z,20.33
2022-08-26T22:47:32.750Z,17.83
2022-08-26T22:50:06.633Z,14.63
2022-08-26T22:52:37.204Z,20.70
2022-08-26T22:55:09.175Z,17.27
2022-08-26T22:57:39.745Z,18.00
2022-08-26T23:00:15.248Z,15.05
2022-08-26T23:02:45.860Z,18.20
2022-08-26T23:05:16.440Z,17.95
2022-08-26T23:07:46.755Z,15.85
2022-08-26T23:10:17.112Z,17.10
2022-08-26T23:12:47.439Z,18.80
2022-08-26T23:15:20.265Z,19.17
2022-08-26T23:17:58.645Z,18.17
2022-08-26T23:20:30.736Z,16.15
2022-08-26T23:23:01.566Z,18.10
2022-08-26T23:25:32.593Z,17.40
2022-08-26T23:28:04.209Z,15.60
2022-08-26T23:30:37.378Z,18.08
2022-08-26T23:33:08.500Z,19.92
2022-08-26T23:35:36.215Z,18.23
2022-08-26T23:38:09.969Z,16.25
2022-08-26T23:40:44.160Z,17.88
2022-08-26T23:43:16.536Z,16.65
2022-08-26T23:45:49.588Z,19.27
2022-08-26T23:48:19.836Z,18.15
2022-08-26T23:51:04.912Z,17.52
2022-08-26T23:53:35.176Z,18.15
2022-08-26T23:56:06.040Z,17.33
2022-08-26T23:58:36.284Z,15.43
